createdAt,value
2022-10-03T00:00:09.632Z,102118.53
2022-10-03T00:03:23.976Z,102096.91
2022-10-03T00:06:12.000Z,102096.91
2022-10-03T00:09:15.567Z,102109.13
2022-10-03T00:12:05.691Z,102114.63
2022-10-03T00:14:48.732Z,102113.63
2022-10-03T00:17:26.782Z,102114.63
2022-10-03T00:20:12.130Z,102120.47
2022-10-03T00:22:49.894Z,102113.81
2022-10-03T00:25:35.132Z,102098.97
2022-10-03T00:28:20.601Z,102105.50
2022-10-03T00:31:12.263Z,102120.28
2022-10-03T00:34:02.454Z,102113.81
2022-10-03T00:36:43.809Z,102114.31
2022-10-03T00:39:39.669Z,102127.31
2022-10-03T00:43:11.759Z,102124.22
2022-10-03T00:46:45.844Z,102116.59
2022-10-03T00:50:08.632Z,102110.53
2022-10-03T00:53:18.002Z,102109.25
2022-10-03T00:56:16.909Z,102106.44
2022-10-03T00:59:11.898Z,102126.31
2022-10-03T01:01:48.440Z,102118.66
2022-10-03T01:04:55.071Z,102118.50
2022-10-03T01:07:54.999Z,102114.28
2022-10-03T01:10:36.375Z,102123.06
2022-10-03T01:13:31.498Z,102117.03
2022-10-03T01:16:13.487Z,102096.03
2022-10-03T01:19:02.230Z,102112.97
2022-10-03T01:21:43.836Z,102114.59
2022-10-03T01:24:47.780Z,102096.66
2022-10-03T01:27:22.616Z,102103.69
2022-10-03T01:30:16.106Z,102106.22
2022-10-03T01:32:53.487Z,102104.56
2022-10-03T01:35:33.017Z,102109.97
2022-10-03T01:38:22.567Z,102113.88
2022-10-03T01:41:03.147Z,102102.78
2022-10-03T01:43:42.881Z,102103.59
2022-10-03T01:46:22.515Z,102088.50
2022-10-03T01:49:03.358Z,102095.69
2022-10-03T01:51:46.923Z,102086.06
2022-10-03T01:54:29.761Z,102097.44
2022-10-03T01:57:01.732Z,102096.81
2022-10-03T01:59:42.742Z,102093.53
2022-10-03T02:02:25.130Z,102106.72
2022-10-03T02:05:04.648Z,102098.75
2022-10-03T02:07:47.099Z,102098.25
2022-10-03T02:10:29.631Z,102094.00
2022-10-03T02:13:10.865Z,102083.22
2022-10-03T02:15:55.208Z,102095.97
2022-10-03T02:18:39.021Z,102095.97
2022-10-03T02:21:16.876Z,102086.03
2022-10-03T02:23:48.133Z,102078.56
2022-10-03T02:27:44.033Z,102073.03
2022-10-03T02:30:21.434Z,102065.22
2022-10-03T02:33:40.153Z,102068.69
2022-10-03T02:36:59.515Z,102074.72
2022-10-03T02:40:33.041Z,102070.03
2022-10-03T02:43:54.308Z,102063.16
2022-10-03T02:47:07.068Z,102065.13
2022-10-03T02:50:33.961Z,102061.53
2022-10-03T02:54:00.462Z,102063.00
2022-10-03T02:57:31.348Z,102067.06
2022-10-03T03:00:15.547Z,102069.66
2022-10-03T03:03:21.201Z,102055.66
2022-10-03T03:06:55.282Z,102055.38
2022-10-03T03:10:07.504Z,102048.66
2022-10-03T03:13:39.871Z,102037.75
2022-10-03T03:16:44.255Z,102035.00
2022-10-03T03:19:52.669Z,102031.09
2022-10-03T03:22:41.310Z,102016.56
2022-10-03T03:25:45.582Z,102027.03
2022-10-03T03:28:33.227Z,102024.59
2022-10-03T03:31:12.436Z,102010.41
2022-10-03T03:34:07.281Z,102011.53
2022-10-03T03:36:45.219Z,101996.84
2022-10-03T03:39:43.823Z,101993.47
2022-10-03T03:42:40.394Z,101997.53
2022-10-03T03:45:38.914Z,101988.94
2022-10-03T03:48:54.946Z,101985.22
2022-10-03T03:51:35.134Z,101969.75
2022-10-03T03:54:34.548Z,101976.88
2022-10-03T03:57:33.231Z,101978.84
2022-10-03T04:00:15.140Z,101983.03
2022-10-03T04:03:12.183Z,101984.09
2022-10-03T04:06:04.124Z,101979.03
2022-10-03T04:08:59.304Z,101972.34
2022-10-03T04:11:45.530Z,101952.81
2022-10-03T04:14:46.563Z,101959.50
2022-10-03T04:18:00.440Z,101960.97
2022-10-03T04:20:58.658Z,101951.19
2022-10-03T04:23:54.217Z,101955.56
2022-10-03T04:26:39.643Z,101933.47
2022-10-03T04:29:47.288Z,101940.91
2022-10-03T04:32:48.432Z,101936.66
2022-10-03T04:35:39.633Z,101939.72
2022-10-03T04:38:17.121Z,101940.66
2022-10-03T04:40:58.867Z,101924.69
2022-10-03T04:43:42.157Z,101934.16
2022-10-03T04:46:29.170Z,101922.31
2022-10-03T04:49:12.836Z,101920.88
2022-10-03T04:51:55.719Z,101928.00
2022-10-03T04:54:38.838Z,101926.56
2022-10-03T04:57:12.289Z,101910.34
2022-10-03T04:59:51.516Z,101920.13
2022-10-03T05:02:46.837Z,101922.22
2022-10-03T05:05:31.248Z,101918.34
2022-10-03T05:08:14.036Z,101917.53
2022-10-03T05:10:59.169Z,101914.47
2022-10-03T05:14:03.717Z,101904.25
2022-10-03T05:16:42.488Z,101894.38
2022-10-03T05:19:53.157Z,101883.50
2022-10-03T05:22:43.375Z,101893.25
2022-10-03T05:25:35.818Z,101892.44
2022-10-03T05:28:22.409Z,101884.16
2022-10-03T05:31:00.561Z,101882.81
2022-10-03T05:33:44.078Z,101887.91
2022-10-03T05:36:30.447Z,101882.75
2022-10-03T05:39:27.504Z,101886.53
2022-10-03T05:42:22.712Z,101883.75
2022-10-03T05:45:04.383Z,101885.38
2022-10-03T05:47:49.875Z,101881.50
2022-10-03T05:50:57.963Z,101870.91
2022-10-03T05:54:02.812Z,101867.34
2022-10-03T05:56:56.281Z,101876.59
2022-10-03T06:00:02.535Z,101883.41
2022-10-03T06:03:02.151Z,101872.22
2022-10-03T06:06:02.040Z,101870.25
2022-10-03T06:08:54.083Z,101867.03
2022-10-03T06:11:51.604Z,101868.84
2022-10-03T06:14:43.636Z,101863.31
2022-10-03T06:17:36.796Z,101849.19
2022-10-03T06:20:52.685Z,101865.59
2022-10-03T06:24:04.851Z,101856.19
2022-10-03T06:27:26.389Z,101866.72
2022-10-03T06:30:14.256Z,101870.81
2022-10-03T06:33:57.655Z,101885.47
2022-10-03T06:36:57.389Z,101879.63
2022-10-03T06:40:19.963Z,101870.81
2022-10-03T06:43:16.053Z,101861.91
2022-10-03T06:46:55.093Z,101879.28
2022-10-03T06:49:44.068Z,101870.88
2022-10-03T06:53:17.926Z,101859.84
2022-10-03T06:56:11.133Z,101874.16
2022-10-03T06:59:19.261Z,101873.34
2022-10-03T07:02:23.729Z,101866.88
2022-10-03T07:06:10.382Z,101857.72
2022-10-03T07:09:29.986Z,101870.72
2022-10-03T07:12:57.849Z,101871.72
2022-10-03T07:16:26.634Z,101882.78
2022-10-03T07:19:31.406Z,101884.25
2022-10-03T07:22:56.844Z,101875.16
2022-10-03T07:26:23.409Z,101881.81
2022-10-03T07:29:23.573Z,101870.91
2022-10-03T07:33:08.121Z,101873.03
2022-10-03T07:36:09.534Z,101883.59
2022-10-03T07:39:26.186Z,101875.78
2022-10-03T07:42:24.924Z,101882.78
2022-10-03T07:45:30.619Z,101872.41
2022-10-03T07:48:40.708Z,101883.59
2022-10-03T07:51:24.073Z,101865.78
2022-10-03T07:54:44.288Z,101870.53
2022-10-03T07:57:55.432Z,101860.59
2022-10-03T08:00:28.239Z,101857.88
2022-10-03T08:04:01.281Z,101854.47
2022-10-03T08:06:39.315Z,101861.13
2022-10-03T08:09:54.396Z,101873.00
2022-10-03T08:13:04.120Z,101866.97
2022-10-03T08:15:53.928Z,101870.09
2022-10-03T08:19:10.349Z,101870.09
2022-10-03T08:22:01.947Z,101867.97
2022-10-03T08:25:03.484Z,101855.81
2022-10-03T08:27:52.993Z,101851.44
2022-10-03T08:30:28.948Z,101852.41
2022-10-03T08:33:23.718Z,101840.06
2022-10-03T08:36:45.873Z,101842.66
2022-10-03T08:39:26.381Z,101838.13
2022-10-03T08:42:50.044Z,101833.56
2022-10-03T08:45:58.067Z,101813.75
2022-10-03T08:49:03.443Z,101823.50
2022-10-03T08:52:10.349Z,101821.06
2022-10-03T08:55:31.160Z,101821.84
2022-10-03T08:58:48.605Z,101823.31
2022-10-03T09:01:55.682Z,101819.72
2022-10-03T09:05:11.587Z,101809.31
2022-10-03T09:08:20.078Z,101811.06
2022-10-03T09:11:43.381Z,101806.69
2022-10-03T09:15:00.776Z,101809.44
2022-10-03T09:18:22.939Z,101807.34
2022-10-03T09:22:11.720Z,101804.25
2022-10-03T09:25:30.217Z,101788.19
2022-10-03T09:29:06.422Z,101789.28
2022-10-03T09:32:25.715Z,101779.06
2022-10-03T09:35:42.302Z,101766.84
2022-10-03T09:39:01.531Z,101761.31
2022-10-03T09:42:28.173Z,101746.56
2022-10-03T09:45:37.980Z,101750.44
2022-10-03T09:48:45.595Z,101745.16
2022-10-03T09:51:27.482Z,101729.56
2022-10-03T09:54:45.338Z,101734.56
2022-10-03T09:58:14.043Z,101738.09
2022-10-03T10:01:21.828Z,101736.59
2022-10-03T10:04:54.996Z,101725.38
2022-10-03T10:08:10.371Z,101718.88
2022-10-03T10:11:10.826Z,101718.41
2022-10-03T10:14:32.641Z,101726.03
2022-10-03T10:18:02.525Z,101721.84
2022-10-03T10:21:03.951Z,101697.19
2022-10-03T10:23:51.134Z,101716.97
2022-10-03T10:27:01.773Z,101706.44
2022-10-03T10:30:01.760Z,101707.91
2022-10-03T10:33:33.343Z,101713.53
2022-10-03T10:37:09.323Z,101705.25
2022-10-03T10:40:26.369Z,101706.22
2022-10-03T10:44:06.435Z,101697.59
2022-10-03T10:47:49.073Z,101688.31
2022-10-03T10:51:21.457Z,101682.53
2022-10-03T10:54:54.253Z,101678.75
2022-10-03T10:57:54.625Z,101665.81
2022-10-03T11:00:31.670Z,101679.97
2022-10-03T11:04:09.372Z,101673.38
2022-10-03T11:07:26.804Z,101646.53
2022-10-03T11:10:31.273Z,101659.16
2022-10-03T11:14:16.876Z,101660.81
2022-10-03T11:17:51.034Z,101646.38
2022-10-03T11:21:14.376Z,101621.47
2022-10-03T11:24:20.379Z,101626.78
2022-10-03T11:27:47.605Z,101625.56
2022-10-03T11:30:51.272Z,101632.69
2022-10-03T11:34:01.045Z,101630.41
2022-10-03T11:37:26.404Z,101614.38
2022-10-03T11:40:15.120Z,101600.16
2022-10-03T11:42:59.248Z,101595.28
2022-10-03T11:45:34.222Z,101590.44
2022-10-03T11:48:39.695Z,101581.50
2022-10-03T11:51:15.743Z,101578.63
2022-10-03T11:53:50.683Z,101578.16
2022-10-03T11:56:39.300Z,101554.63
2022-10-03T11:59:52.017Z,101559.94
2022-10-03T12:02:46.576Z,101577.25
2022-10-03T12:05:26.122Z,101564.19
2022-10-03T12:08:30.454Z,101569.06
2022-10-03T12:11:11.474Z,101560.63
2022-10-03T12:14:05.246Z,101559.38
2022-10-03T12:16:58.884Z,101549.56
2022-10-03T12:19:34.833Z,101550.34
2022-10-03T12:22:19.962Z,101548.84
2022-10-03T12:24:49.916Z,101550.34
2022-10-03T12:27:39.442Z,101547.22
2022-10-03T12:30:17.621Z,101534.28
2022-10-03T12:33:09.096Z,101541.47
2022-10-03T12:35:47.001Z,101552.31
2022-10-03T12:38:40.431Z,101522.78
2022-10-03T12:41:25.929Z,101528.88
2022-10-03T12:44:17.555Z,101533.09
2022-10-03T12:47:03.159Z,101522.22
2022-10-03T12:49:52.562Z,101525.56
2022-10-03T12:52:29.788Z,101523.03
2022-10-03T12:55:27.388Z,101509.31
2022-10-03T12:58:07.340Z,101515.22
2022-10-03T13:00:47.543Z,101517.28
2022-10-03T13:03:34.144Z,101505.69
2022-10-03T13:07:02.962Z,101495.84
2022-10-03T13:10:10.941Z,101478.56
2022-10-03T13:12:51.223Z,101487.16
2022-10-03T13:16:06.814Z,101479.63
2022-10-03T13:19:06.625Z,101469.25
2022-10-03T13:22:07.264Z,101481.44
2022-10-03T13:24:43.300Z,101474.81
2022-10-03T13:27:33.439Z,101467.00
2022-10-03T13:30:14.470Z,101450.50
2022-10-03T13:32:47.847Z,101459.00
2022-10-03T13:35:55.064Z,101454.41
2022-10-03T13:38:55.173Z,101442.44
2022-10-03T13:41:50.218Z,101446.03
2022-10-03T13:44:23.866Z,101432.84
2022-10-03T13:47:01.648Z,101436.72
2022-10-03T13:49:35.980Z,101433.97
2022-10-03T13:52:18.942Z,101440.22
2022-10-03T13:55:28.044Z,101424.28
2022-10-03T13:58:16.018Z,101431.06
2022-10-03T14:01:11.831Z,101434.81
2022-10-03T14:03:54.563Z,101414.19
2022-10-03T14:06:36.616Z,101409.28
2022-10-03T14:10:00.555Z,101415.75
2022-10-03T14:12:55.313Z,101409.97
2022-10-03T14:15:42.126Z,101411.03
2022-10-03T14:18:27.576Z,101405.75
2022-10-03T14:22:06.287Z,101421.81
2022-10-03T14:25:00.904Z,101419.50
2022-10-03T14:27:53.284Z,101425.94
2022-10-03T14:30:24.799Z,101418.81
2022-10-03T14:33:13.268Z,101416.81
2022-10-03T14:35:56.208Z,101410.72
2022-10-03T14:39:02.374Z,101401.47
2022-10-03T14:41:50.328Z,101393.13
2022-10-03T14:44:23.780Z,101389.53
2022-10-03T14:46:58.816Z,101398.72
2022-10-03T14:49:53.542Z,101392.56
2022-10-03T14:52:31.605Z,101385.09
2022-10-03T14:55:13.561Z,101391.91
2022-10-03T14:58:09.278Z,101372.41
2022-10-03T15:00:45.430Z,101361.53
2022-10-03T15:03:22.985Z,101383.16
2022-10-03T15:06:34.023Z,101362.75
2022-10-03T15:09:10.208Z,101345.81
2022-10-03T15:11:49.868Z,101370.28
2022-10-03T15:14:22.620Z,101378.06
2022-10-03T15:16:56.312Z,101357.53
2022-10-03T15:19:37.439Z,101359.22
2022-10-03T15:22:22.214Z,101360.84
2022-10-03T15:24:55.023Z,101357.44
2022-10-03T15:27:25.529Z,101369.25
2022-10-03T15:29:59.693Z,101366.06
2022-10-03T15:32:34.962Z,101341.88
2022-10-03T15:35:06.121Z,101338.50
2022-10-03T15:37:45.403Z,101334.63
2022-10-03T15:40:32.173Z,101357.00
2022-10-03T15:43:09.383Z,101353.63
2022-10-03T15:45:40.944Z,101360.22
2022-10-03T15:48:19.954Z,101360.59
2022-10-03T15:50:57.065Z,101328.78
2022-10-03T15:53:36.425Z,101340.06
2022-10-03T15:56:15.482Z,101329.16
2022-10-03T15:58:51.063Z,101335.97
2022-10-03T16:01:26.979Z,101307.94
2022-10-03T16:04:01.095Z,101305.66
2022-10-03T16:06:40.230Z,101282.34
2022-10-03T16:09:25.072Z,101308.47
2022-10-03T16:12:13.035Z,101291.78
2022-10-03T16:14:45.953Z,101290.50
2022-10-03T16:17:21.968Z,101296.03
2022-10-03T16:19:56.406Z,101301.06
2022-10-03T16:22:35.043Z,101289.19
2022-10-03T16:25:14.135Z,101282.16
2022-10-03T16:27:55.982Z,101290.94
2022-10-03T16:30:29.212Z,101283.53
2022-10-03T16:33:12.792Z,101289.69
2022-10-03T16:35:48.662Z,101287.06
2022-10-03T16:38:26.049Z,101281.53
2022-10-03T16:40:59.360Z,101281.91
2022-10-03T16:43:32.973Z,101286.41
2022-10-03T16:46:10.341Z,101274.31
2022-10-03T16:49:02.395Z,101256.50
2022-10-03T16:51:40.801Z,101274.50
2022-10-03T16:54:14.864Z,101271.78
2022-10-03T16:56:51.212Z,101270.63
2022-10-03T16:59:23.165Z,101286.19
2022-10-03T17:01:55.698Z,101260.47
2022-10-03T17:04:27.998Z,101249.25
2022-10-03T17:07:00.993Z,101251.56
2022-10-03T17:09:38.519Z,101264.91
2022-10-03T17:12:17.177Z,101242.22
2022-10-03T17:14:47.207Z,101243.44
2022-10-03T17:17:31.298Z,101250.34
2022-10-03T17:20:07.157Z,101240.03
2022-10-03T17:22:43.514Z,101235.16
2022-10-03T17:25:42.992Z,101233.09
2022-10-03T17:28:24.592Z,101233.34
2022-10-03T17:31:00.378Z,101208.19
2022-10-03T17:33:39.838Z,101232.31
2022-10-03T17:37:20.938Z,101227.19
2022-10-03T17:39:58.805Z,101225.75
2022-10-03T17:42:42.188Z,101208.59
2022-10-03T17:45:37.103Z,101206.19
2022-10-03T17:48:21.047Z,101215.94
2022-10-03T17:51:04.689Z,101215.38
2022-10-03T17:53:39.703Z,101220.56
2022-10-03T17:56:14.701Z,101205.34
2022-10-03T17:58:49.966Z,101202.56
2022-10-03T18:01:23.669Z,101204.38
2022-10-03T18:03:58.208Z,101208.34
2022-10-03T18:06:47.348Z,101179.81
2022-10-03T18:09:41.023Z,101170.25
2022-10-03T18:12:30.272Z,101159.28
2022-10-03T18:15:48.155Z,101172.72
2022-10-03T18:19:09.757Z,101176.47
2022-10-03T18:22:06.477Z,101191.75
2022-10-03T18:25:01.526Z,101176.91
2022-10-03T18:28:14.503Z,101178.56
2022-10-03T18:30:53.726Z,101146.38
2022-10-03T18:33:30.359Z,101175.41
2022-10-03T18:36:08.905Z,101162.50
2022-10-03T18:38:40.489Z,101166.44
2022-10-03T18:41:16.973Z,101169.44
2022-10-03T18:43:54.004Z,101147.22
2022-10-03T18:46:27.067Z,101150.16
2022-10-03T18:49:35.185Z,101167.78
2022-10-03T18:52:00.538Z,101167.84
2022-10-03T18:54:47.544Z,101167.13
2022-10-03T18:57:26.488Z,101168.41
2022-10-03T19:00:03.123Z,101153.84
2022-10-03T19:02:40.401Z,101152.06
2022-10-03T19:05:17.727Z,101141.44
2022-10-03T19:07:55.127Z,101143.66
2022-10-03T19:10:43.840Z,101123.56
2022-10-03T19:13:29.668Z,101104.03
2022-10-03T19:16:33.840Z,101116.59
2022-10-03T19:19:11.453Z,101116.31
2022-10-03T19:21:43.280Z,101101.66
2022-10-03T19:24:30.582Z,101100.84
2022-10-03T19:27:17.634Z,101113.47
2022-10-03T19:29:52.267Z,101101.47
2022-10-03T19:32:33.521Z,101098.53
2022-10-03T19:35:06.453Z,101102.09
2022-10-03T19:37:45.797Z,101098.34
2022-10-03T19:40:30.966Z,101092.91
2022-10-03T19:43:33.181Z,101084.25
2022-10-03T19:46:35.001Z,101072.00
2022-10-03T19:49:33.644Z,101070.94
2022-10-03T19:52:28.016Z,101070.75
2022-10-03T19:55:03.976Z,101080.47
2022-10-03T19:57:43.121Z,101070.72
2022-10-03T20:00:40.304Z,101052.41
2022-10-03T20:03:21.621Z,101059.41
2022-10-03T20:06:19.643Z,101044.03
2022-10-03T20:08:54.823Z,101045.09
2022-10-03T20:11:40.694Z,101048.34
2022-10-03T20:14:19.777Z,101023.47
2022-10-03T20:16:50.737Z,101038.56
2022-10-03T20:19:27.273Z,101032.06
2022-10-03T20:21:59.182Z,101025.53
2022-10-03T20:24:33.965Z,101030.28
2022-10-03T20:27:30.882Z,101025.34
2022-10-03T20:30:26.745Z,101037.28
2022-10-03T20:32:59.347Z,101032.78
2022-10-03T20:35:37.833Z,101031.00
2022-10-03T20:38:17.436Z,101036.44
2022-10-03T20:40:55.550Z,101037.72
2022-10-03T20:43:41.827Z,101033.66
2022-10-03T20:46:26.004Z,101027.88
2022-10-03T20:49:22.289Z,101019.66
2022-10-03T20:52:02.469Z,101011.44
2022-10-03T20:54:37.927Z,101021.06
2022-10-03T20:57:18.178Z,101005.34
2022-10-03T20:59:51.018Z,101009.38
2022-10-03T21:02:30.739Z,101007.06
2022-10-03T21:05:06.275Z,100994.19
2022-10-03T21:07:43.411Z,101004.91
2022-10-03T21:10:25.338Z,100992.94
2022-10-03T21:12:58.975Z,100966.25
2022-10-03T21:15:40.922Z,100992.75
2022-10-03T21:18:23.015Z,100987.41
2022-10-03T21:21:07.424Z,100990.59
2022-10-03T21:23:44.781Z,100991.31
2022-10-03T21:26:14.454Z,100991.47
2022-10-03T21:28:43.646Z,100987.09
2022-10-03T21:31:38.504Z,101001.16
2022-10-03T21:34:19.071Z,100996.16
2022-10-03T21:36:58.064Z,100980.59
2022-10-03T21:39:41.829Z,100999.09
2022-10-03T21:42:22.043Z,100991.59
2022-10-03T21:45:10.830Z,100978.00
2022-10-03T21:47:49.986Z,100971.03
2022-10-03T21:50:25.897Z,100969.44
2022-10-03T21:53:18.637Z,100966.19
2022-10-03T21:56:21.795Z,100966.84
2022-10-03T21:59:15.370Z,100959.69
2022-10-03T22:01:50.023Z,100951.56
2022-10-03T22:04:27.761Z,100947.72
2022-10-03T22:07:06.405Z,100930.66
2022-10-03T22:09:35.787Z,100927.59
2022-10-03T22:12:08.288Z,100915.53
2022-10-03T22:14:46.489Z,100925.81
2022-10-03T22:17:25.312Z,100905.03
2022-10-03T22:20:12.387Z,100902.63
2022-10-03T22:22:56.217Z,100892.28
2022-10-03T22:25:56.913Z,100877.34
2022-10-03T22:28:43.223Z,100868.06
2022-10-03T22:31:26.171Z,100852.19
2022-10-03T22:34:18.101Z,100883.63
2022-10-03T22:36:47.486Z,100893.19
2022-10-03T22:39:19.606Z,100872.00
2022-10-03T22:41:54.484Z,100864.59
2022-10-03T22:44:29.249Z,100822.72
2022-10-03T22:47:12.977Z,100787.94
2022-10-03T22:49:45.889Z,100829.06
2022-10-03T22:52:23.867Z,100827.84
2022-10-03T22:54:55.170Z,100822.88
2022-10-03T22:57:26.486Z,100816.63
2022-10-03T23:00:02.254Z,100814.44
2022-10-03T23:02:34.907Z,100807.13
2022-10-03T23:05:06.492Z,100800.66
2022-10-03T23:08:08.279Z,100775.81
2022-10-03T23:10:49.012Z,100776.41
2022-10-03T23:13:37.629Z,100769.28
2022-10-03T23:16:29.918Z,100780.72
2022-10-03T23:19:34.994Z,100755.91
2022-10-03T23:22:05.973Z,100747.25
2022-10-03T23:24:43.827Z,100756.94
2022-10-03T23:27:49.522Z,100744.72
2022-10-03T23:30:54.245Z,100754.97
2022-10-03T23:33:53.836Z,100747.66
2022-10-03T23:36:25.515Z,100751.75
2022-10-03T23:39:02.479Z,100747.03
2022-10-03T23:41:56.440Z,100762.56
2022-10-03T23:44:48.877Z,100760.06
2022-10-03T23:47:26.688Z,100753.72
2022-10-03T23:49:58.457Z,100750.91
2022-10-03T23:52:32.015Z,100749.00
2022-10-03T23:55:08.378Z,100750.16
2022-10-03T23:57:42.797Z,100744.56
